sensor_id;sensor_type;location;lat;lon;timestamp;P1;durP1;ratioP1;P2;durP2;ratioP2
60318;SDS011;46163;52.306;5.634;2023-02-22T00:00:19;1.70;;;1.60;;
60318;SDS011;46163;52.306;5.634;2023-02-22T00:03:10;1.80;;;1.70;;
60318;SDS011;46163;52.306;5.634;2023-02-22T00:05:40;1.73;;;1.63;;
60318;SDS011;46163;52.306;5.634;2023-02-22T00:08:11;1.80;;;1.70;;
60318;SDS011;46163;52.306;5.634;2023-02-22T00:10:41;2.13;;;1.80;;
60318;SDS011;46163;52.306;5.634;2023-02-22T00:13:08;1.92;;;1.75;;
60318;SDS011;46163;52.306;5.634;2023-02-22T00:15:37;2.10;;;1.83;;
60318;SDS011;46163;52.306;5.634;2023-02-22T00:18:05;1.80;;;1.70;;
60318;SDS011;46163;52.306;5.634;2023-02-22T00:20:34;1.73;;;1.63;;
60318;SDS011;46163;52.306;5.634;2023-02-22T00:23:03;1.73;;;1.60;;
60318;SDS011;46163;52.306;5.634;2023-02-22T00:25:31;1.70;;;1.60;;
60318;SDS011;46163;52.306;5.634;2023-02-22T00:27:58;1.92;;;1.77;;
60318;SDS011;46163;52.306;5.634;2023-02-22T00:30:24;2.00;;;1.80;;
60318;SDS011;46163;52.306;5.634;2023-02-22T00:32:52;2.10;;;1.90;;
60318;SDS011;46163;52.306;5.634;2023-02-22T00:37:46;1.65;;;1.55;;
60318;SDS011;46163;52.306;5.634;2023-02-22T00:40:15;1.75;;;1.65;;
60318;SDS011;46163;52.306;5.634;2023-02-22T00:42:43;1.80;;;1.70;;
60318;SDS011;46163;52.306;5.634;2023-02-22T00:45:09;1.92;;;1.75;;
60318;SDS011;46163;52.306;5.634;2023-02-22T00:47:35;2.13;;;1.60;;
60318;SDS011;46163;52.306;5.634;2023-02-22T00:50:00;1.60;;;1.50;;
60318;SDS011;46163;52.306;5.634;2023-02-22T00:52:26;1.83;;;1.70;;
60318;SDS011;46163;52.306;5.634;2023-02-22T00:54:52;1.90;;;1.67;;
60318;SDS011;46163;52.306;5.634;2023-02-22T00:57:19;1.80;;;1.70;;
60318;SDS011;46163;52.306;5.634;2023-02-22T00:59:45;1.88;;;1.75;;
60318;SDS011;46163;52.306;5.634;2023-02-22T01:02:11;1.70;;;1.60;;
60318;SDS011;46163;52.306;5.634;2023-02-22T01:04:37;1.77;;;1.67;;
60318;SDS011;46163;52.306;5.634;2023-02-22T01:07:03;1.58;;;1.48;;
60318;SDS011;46163;52.306;5.634;2023-02-22T01:09:29;1.60;;;1.50;;
60318;SDS011;46163;52.306;5.634;2023-02-22T01:11:55;1.70;;;1.60;;
60318;SDS011;46163;52.306;5.634;2023-02-22T01:14:21;1.60;;;1.50;;
60318;SDS011;46163;52.306;5.634;2023-02-22T01:16:50;1.60;;;1.50;;
60318;SDS011;46163;52.306;5.634;2023-02-22T01:19:19;1.65;;;1.55;;
60318;SDS011;46163;52.306;5.634;2023-02-22T01:21:46;1.95;;;1.70;;
60318;SDS011;46163;52.306;5.634;2023-02-22T01:24:12;1.70;;;1.60;;
60318;SDS011;46163;52.306;5.634;2023-02-22T01:26:41;1.60;;;1.50;;
60318;SDS011;46163;52.306;5.634;2023-02-22T01:29:07;1.67;;;1.58;;
60318;SDS011;46163;52.306;5.634;2023-02-22T01:31:39;1.52;;;1.42;;
60318;SDS011;46163;52.306;5.634;2023-02-22T01:34:08;1.60;;;1.50;;
60318;SDS011;46163;52.306;5.634;2023-02-22T01:36:34;1.55;;;1.45;;
60318;SDS011;46163;52.306;5.634;2023-02-22T01:39:00;1.50;;;1.40;;
60318;SDS011;46163;52.306;5.634;2023-02-22T01:41:25;1.88;;;1.50;;
60318;SDS011;46163;52.306;5.634;2023-02-22T01:43:51;1.65;;;1.55;;
60318;SDS011;46163;52.306;5.634;2023-02-22T01:46:21;1.50;;;1.40;;
60318;SDS011;46163;52.306;5.634;2023-02-22T01:48:51;1.35;;;1.35;;
60318;SDS011;46163;52.306;5.634;2023-02-22T01:51:22;1.67;;;1.58;;
60318;SDS011;46163;52.306;5.634;2023-02-22T01:56:27;1.42;;;1.33;;
60318;SDS011;46163;52.306;5.634;2023-02-22T01:58:58;1.98;;;1.75;;
60318;SDS011;46163;52.306;5.634;2023-02-22T02:01:27;1.55;;;1.45;;
60318;SDS011;46163;52.306;5.634;2023-02-22T02:03:54;1.40;;;1.30;;
60318;SDS011;46163;52.306;5.634;2023-02-22T02:06:22;1.73;;;1.42;;
60318;SDS011;46163;52.306;5.634;2023-02-22T02:09:03;1.60;;;1.50;;
60318;SDS011;46163;52.306;5.634;2023-02-22T02:11:50;1.70;;;1.60;;
60318;SDS011;46163;52.306;5.634;2023-02-22T02:14:17;1.50;;;1.40;;
60318;SDS011;46163;52.306;5.634;2023-02-22T02:16:43;1.50;;;1.40;;
60318;SDS011;46163;52.306;5.634;2023-02-22T02:30:22;1.50;;;1.40;;
60318;SDS011;46163;52.306;5.634;2023-02-22T02:43:45;1.40;;;1.40;;
60318;SDS011;46163;52.306;5.634;2023-02-22T02:46:14;1.50;;;1.40;;
60318;SDS011;46163;52.306;5.634;2023-02-22T02:48:48;1.30;;;1.30;;
60318;SDS011;46163;52.306;5.634;2023-02-22T02:51:18;1.40;;;1.30;;
60318;SDS011;46163;52.306;5.634;2023-02-22T02:53:46;1.70;;;1.60;;
60318;SDS011;46163;52.306;5.634;2023-02-22T02:56:15;1.67;;;1.40;;
60318;SDS011;46163;52.306;5.634;2023-02-22T02:58:43;1.55;;;1.45;;
60318;SDS011;46163;52.306;5.634;2023-02-22T03:01:13;2.13;;;1.30;;
60318;SDS011;46163;52.306;5.634;2023-02-22T03:03:55;1.50;;;1.40;;
60318;SDS011;46163;52.306;5.634;2023-02-22T03:06:32;1.70;;;1.60;;
60318;SDS011;46163;52.306;5.634;2023-02-22T03:12:06;1.70;;;1.60;;
60318;SDS011;46163;52.306;5.634;2023-02-22T03:20:11;1.40;;;1.30;;
60318;SDS011;46163;52.306;5.634;2023-02-22T03:25:42;1.60;;;1.50;;
60318;SDS011;46163;52.306;5.634;2023-02-22T03:28:13;1.52;;;1.40;;
60318;SDS011;46163;52.306;5.634;2023-02-22T03:30:50;1.60;;;1.50;;
60318;SDS011;46163;52.306;5.634;2023-02-22T03:33:24;1.13;;;1.13;;
60318;SDS011;46163;52.306;5.634;2023-02-22T03:36:01;1.60;;;1.50;;
60318;SDS011;46163;52.306;5.634;2023-02-22T03:38:31;1.48;;;1.38;;
60318;SDS011;46163;52.306;5.634;2023-02-22T03:41:01;1.50;;;1.40;;
60318;SDS011;46163;52.306;5.634;2023-02-22T03:43:28;1.17;;;1.17;;
60318;SDS011;46163;52.306;5.634;2023-02-22T03:46:00;1.70;;;1.60;;
60318;SDS011;46163;52.306;5.634;2023-02-22T03:48:30;1.55;;;1.45;;
60318;SDS011;46163;52.306;5.634;2023-02-22T03:51:02;1.75;;;1.42;;
60318;SDS011;46163;52.306;5.634;2023-02-22T03:53:29;1.52;;;1.42;;
60318;SDS011;46163;52.306;5.634;2023-02-22T03:55:58;1.60;;;1.50;;
60318;SDS011;46163;52.306;5.634;2023-02-22T03:58:30;1.50;;;1.40;;
60318;SDS011;46163;52.306;5.634;2023-02-22T04:00:58;1.67;;;1.58;;
60318;SDS011;46163;52.306;5.634;2023-02-22T04:03:24;1.48;;;1.38;;
60318;SDS011;46163;52.306;5.634;2023-02-22T04:05:49;1.40;;;1.30;;
60318;SDS011;46163;52.306;5.634;2023-02-22T04:08:15;1.20;;;1.20;;
60318;SDS011;46163;52.306;5.634;2023-02-22T04:10:41;1.45;;;1.35;;
60318;SDS011;46163;52.306;5.634;2023-02-22T04:13:07;1.30;;;1.30;;
60318;SDS011;46163;52.306;5.634;2023-02-22T04:15:33;1.70;;;1.60;;
60318;SDS011;46163;52.306;5.634;2023-02-22T04:17:58;1.17;;;1.17;;
60318;SDS011;46163;52.306;5.634;2023-02-22T04:20:24;1.55;;;1.45;;
60318;SDS011;46163;52.306;5.634;2023-02-22T04:22:51;1.27;;;1.27;;
60318;SDS011;46163;52.306;5.634;2023-02-22T04:25:17;1.43;;;1.33;;
60318;SDS011;46163;52.306;5.634;2023-02-22T04:27:43;1.15;;;1.15;;
60318;SDS011;46163;52.306;5.634;2023-02-22T04:30:09;1.10;;;1.10;;
60318;SDS011;46163;52.306;5.634;2023-02-22T04:32:36;1.50;;;1.40;;
60318;SDS011;46163;52.306;5.634;2023-02-22T04:35:03;1.33;;;1.23;;
60318;SDS011;46163;52.306;5.634;2023-02-22T04:37:29;1.05;;;1.05;;
60318;SDS011;46163;52.306;5.634;2023-02-22T04:39:55;1.20;;;1.20;;
60318;SDS011;46163;52.306;5.634;2023-02-22T04:42:20;1.13;;;1.13;;
60318;SDS011;46163;52.306;5.634;2023-02-22T04:44:46;1.50;;;1.40;;
60318;SDS011;46163;52.306;5.634;2023-02-22T04:47:12;1.60;;;1.50;;
60318;SDS011;46163;52.306;5.634;2023-02-22T04:49:38;1.38;;;1.30;;
60318;SDS011;46163;52.306;5.634;2023-02-22T04:52:04;1.33;;;1.23;;
60318;SDS011;46163;52.306;5.634;2023-02-22T04:54:29;1.10;;;1.10;;
60318;SDS011;46163;52.306;5.634;2023-02-22T04:56:57;1.40;;;1.30;;
60318;SDS011;46163;52.306;5.634;2023-02-22T04:59:23;1.10;;;1.10;;
60318;SDS011;46163;52.306;5.634;2023-02-22T05:01:48;1.05;;;1.05;;
60318;SDS011;46163;52.306;5.634;2023-02-22T05:04:14;1.42;;;1.33;;
60318;SDS011;46163;52.306;5.634;2023-02-22T05:06:39;1.15;;;1.15;;
60318;SDS011;46163;52.306;5.634;2023-02-22T05:09:05;1.20;;;1.17;;
60318;SDS011;46163;52.306;5.634;2023-02-22T05:11:30;1.08;;;1.08;;
60318;SDS011;46163;52.306;5.634;2023-02-22T05:13:56;1.00;;;1.00;;
60318;SDS011;46163;52.306;5.634;2023-02-22T05:16:22;0.95;;;0.95;;
60318;SDS011;46163;52.306;5.634;2023-02-22T05:18:47;1.23;;;1.13;;
60318;SDS011;46163;52.306;5.634;2023-02-22T05:21:13;1.20;;;1.10;;
60318;SDS011;46163;52.306;5.634;2023-02-22T05:23:38;1.15;;;1.15;;
60318;SDS011;46163;52.306;5.634;2023-02-22T05:26:04;1.00;;;1.00;;
60318;SDS011;46163;52.306;5.634;2023-02-22T05:28:30;1.30;;;1.30;;
60318;SDS011;46163;52.306;5.634;2023-02-22T05:30:56;1.15;;;1.15;;
60318;SDS011;46163;52.306;5.634;2023-02-22T05:33:21;1.10;;;1.10;;
60318;SDS011;46163;52.306;5.634;2023-02-22T05:35:47;1.20;;;1.20;;
60318;SDS011;46163;52.306;5.634;2023-02-22T05:38:14;1.30;;;1.20;;
60318;SDS011;46163;52.306;5.634;2023-02-22T05:40:40;1.13;;;1.13;;
60318;SDS011;46163;52.306;5.634;2023-02-22T05:43:06;1.35;;;1.25;;
60318;SDS011;46163;52.306;5.634;2023-02-22T05:45:33;0.93;;;0.93;;
60318;SDS011;46163;52.306;5.634;2023-02-22T05:48:00;1.00;;;1.00;;
60318;SDS011;46163;52.306;5.634;2023-02-22T05:50:26;1.05;;;1.05;;
60318;SDS011;46163;52.306;5.634;2023-02-22T05:52:53;1.02;;;1.02;;
60318;SDS011;46163;52.306;5.634;2023-02-22T05:55:20;1.30;;;1.20;;
60318;SDS011;46163;52.306;5.634;2023-02-22T05:57:47;1.17;;;1.17;;
60318;SDS011;46163;52.306;5.634;2023-02-22T06:00:18;1.02;;;1.02;;
60318;SDS011;46163;52.306;5.634;2023-02-22T06:02:53;1.30;;;1.20;;
60318;SDS011;46163;52.306;5.634;2023-02-22T06:05:29;1.40;;;1.30;;
60318;SDS011;46163;52.306;5.634;2023-02-22T06:07:56;1.35;;;1.25;;
60318;SDS011;46163;52.306;5.634;2023-02-22T06:10:22;1.50;;;1.40;;
60318;SDS011;46163;52.306;5.634;2023-02-22T06:12:48;1.30;;;1.30;;
60318;SDS011;46163;52.306;5.634;2023-02-22T06:15:15;1.50;;;1.40;;
60318;SDS011;46163;52.306;5.634;2023-02-22T06:17:41;1.45;;;1.35;;
60318;SDS011;46163;52.306;5.634;2023-02-22T06:22:35;1.40;;;1.30;;
60318;SDS011;46163;52.306;5.634;2023-02-22T06:25:01;1.55;;;1.45;;
60318;SDS011;46163;52.306;5.634;2023-02-22T06:27:31;4.97;;;1.50;;
60318;SDS011;46163;52.306;5.634;2023-02-22T06:29:57;1.60;;;1.50;;
60318;SDS011;46163;52.306;5.634;2023-02-22T06:32:23;1.70;;;1.50;;
60318;SDS011;46163;52.306;5.634;2023-02-22T06:34:48;1.90;;;1.60;;
60318;SDS011;46163;52.306;5.634;2023-02-22T06:37:14;3.30;;;1.65;;
60318;SDS011;46163;52.306;5.634;2023-02-22T06:39:40;1.73;;;1.37;;
60318;SDS011;46163;52.306;5.634;2023-02-22T06:42:05;1.70;;;1.60;;
60318;SDS011;46163;52.306;5.634;2023-02-22T06:44:31;3.83;;;1.60;;
60318;SDS011;46163;52.306;5.634;2023-02-22T06:46:56;1.85;;;1.63;;
60318;SDS011;46163;52.306;5.634;2023-02-22T06:49:24;1.70;;;1.60;;
60318;SDS011;46163;52.306;5.634;2023-02-22T06:51:53;4.38;;;2.20;;
60318;SDS011;46163;52.306;5.634;2023-02-22T06:54:19;3.13;;;2.08;;
60318;SDS011;46163;52.306;5.634;2023-02-22T06:56:45;2.33;;;1.90;;
60318;SDS011;46163;52.306;5.634;2023-02-22T06:59:11;2.00;;;1.80;;
60318;SDS011;46163;52.306;5.634;2023-02-22T07:01:39;2.53;;;1.70;;
60318;SDS011;46163;52.306;5.634;2023-02-22T07:04:08;2.03;;;1.55;;
60318;SDS011;46163;52.306;5.634;2023-02-22T07:06:33;4.38;;;1.88;;
60318;SDS011;46163;52.306;5.634;2023-02-22T07:08:59;2.15;;;1.50;;
60318;SDS011;46163;52.306;5.634;2023-02-22T07:11:25;2.13;;;1.50;;
60318;SDS011;46163;52.306;5.634;2023-02-22T07:13:50;1.83;;;1.55;;
60318;SDS011;46163;52.306;5.634;2023-02-22T07:16:16;2.25;;;1.50;;
60318;SDS011;46163;52.306;5.634;2023-02-22T07:18:42;2.10;;;1.48;;
60318;SDS011;46163;52.306;5.634;2023-02-22T07:21:07;1.67;;;1.58;;
60318;SDS011;46163;52.306;5.634;2023-02-22T07:23:33;2.00;;;1.50;;
60318;SDS011;46163;52.306;5.634;2023-02-22T07:25:59;1.52;;;1.42;;
60318;SDS011;46163;52.306;5.634;2023-02-22T07:28:25;1.87;;;1.53;;
60318;SDS011;46163;52.306;5.634;2023-02-22T07:30:51;1.75;;;1.50;;
60318;SDS011;46163;52.306;5.634;2023-02-22T07:33:17;2.22;;;1.80;;
60318;SDS011;46163;52.306;5.634;2023-02-22T07:35:48;2.78;;;1.75;;
60318;SDS011;46163;52.306;5.634;2023-02-22T07:38:15;2.22;;;1.40;;
60318;SDS011;46163;52.306;5.634;2023-02-22T07:40:42;2.00;;;1.73;;
60318;SDS011;46163;52.306;5.634;2023-02-22T07:45:59;1.63;;;1.52;;
60318;SDS011;46163;52.306;5.634;2023-02-22T07:50:53;1.42;;;1.33;;
60318;SDS011;46163;52.306;5.634;2023-02-22T07:53:26;1.85;;;1.60;;
60318;SDS011;46163;52.306;5.634;2023-02-22T07:55:55;1.60;;;1.50;;
60318;SDS011;46163;52.306;5.634;2023-02-22T07:58:27;5.25;;;1.50;;
60318;SDS011;46163;52.306;5.634;2023-02-22T08:00:55;1.38;;;1.30;;
60318;SDS011;46163;52.306;5.634;2023-02-22T08:03:22;1.58;;;1.48;;
60318;SDS011;46163;52.306;5.634;2023-02-22T08:05:53;2.17;;;1.45;;
60318;SDS011;46163;52.306;5.634;2023-02-22T08:08:20;1.45;;;1.27;;
60318;SDS011;46163;52.306;5.634;2023-02-22T08:10:47;1.33;;;1.30;;
60318;SDS011;46163;52.306;5.634;2023-02-22T08:13:14;1.38;;;1.25;;
60318;SDS011;46163;52.306;5.634;2023-02-22T08:15:41;2.15;;;1.55;;
60318;SDS011;46163;52.306;5.634;2023-02-22T08:18:09;1.23;;;1.13;;
60318;SDS011;46163;52.306;5.634;2023-02-22T08:23:02;1.60;;;1.50;;
60318;SDS011;46163;52.306;5.634;2023-02-22T08:25:29;1.40;;;1.33;;
60318;SDS011;46163;52.306;5.634;2023-02-22T08:27:58;1.73;;;1.50;;
60318;SDS011;46163;52.306;5.634;2023-02-22T08:30:29;1.50;;;1.40;;
60318;SDS011;46163;52.306;5.634;2023-02-22T08:32:56;1.70;;;1.40;;
60318;SDS011;46163;52.306;5.634;2023-02-22T08:35:22;1.50;;;1.40;;
60318;SDS011;46163;52.306;5.634;2023-02-22T08:37:50;1.63;;;1.52;;
60318;SDS011;46163;52.306;5.634;2023-02-22T08:40:19;1.85;;;1.55;;
60318;SDS011;46163;52.306;5.634;2023-02-22T08:42:47;1.67;;;1.58;;
60318;SDS011;46163;52.306;5.634;2023-02-22T08:45:12;1.70;;;1.60;;
60318;SDS011;46163;52.306;5.634;2023-02-22T08:47:38;1.50;;;1.40;;
60318;SDS011;46163;52.306;5.634;2023-02-22T08:50:05;1.70;;;1.60;;
60318;SDS011;46163;52.306;5.634;2023-02-22T08:52:31;1.75;;;1.48;;
60318;SDS011;46163;52.306;5.634;2023-02-22T08:54:56;2.67;;;1.77;;
60318;SDS011;46163;52.306;5.634;2023-02-22T08:57:22;1.50;;;1.40;;
60318;SDS011;46163;52.306;5.634;2023-02-22T08:59:47;1.52;;;1.42;;
60318;SDS011;46163;52.306;5.634;2023-02-22T09:02:14;1.60;;;1.50;;
60318;SDS011;46163;52.306;5.634;2023-02-22T09:04:42;1.50;;;1.40;;
60318;SDS011;46163;52.306;5.634;2023-02-22T09:07:08;1.50;;;1.40;;
60318;SDS011;46163;52.306;5.634;2023-02-22T09:09:33;1.52;;;1.42;;
60318;SDS011;46163;52.306;5.634;2023-02-22T09:12:00;3.33;;;1.63;;
60318;SDS011;46163;52.306;5.634;2023-02-22T09:14:25;2.17;;;1.70;;
60318;SDS011;46163;52.306;5.634;2023-02-22T09:16:51;1.80;;;1.63;;
60318;SDS011;46163;52.306;5.634;2023-02-22T09:19:21;3.17;;;2.50;;
60318;SDS011;46163;52.306;5.634;2023-02-22T09:21:53;3.33;;;2.28;;
60318;SDS011;46163;52.306;5.634;2023-02-22T09:24:20;1.92;;;1.80;;
60318;SDS011;46163;52.306;5.634;2023-02-22T09:26:46;5.28;;;2.22;;
60318;SDS011;46163;52.306;5.634;2023-02-22T09:29:16;5.03;;;2.03;;
60318;SDS011;46163;52.306;5.634;2023-02-22T09:31:41;3.50;;;2.05;;
60318;SDS011;46163;52.306;5.634;2023-02-22T09:34:07;2.72;;;1.80;;
60318;SDS011;46163;52.306;5.634;2023-02-22T09:36:40;2.05;;;1.80;;
60318;SDS011;46163;52.306;5.634;2023-02-22T09:39:06;2.03;;;1.57;;
60318;SDS011;46163;52.306;5.634;2023-02-22T09:41:41;1.80;;;1.70;;
60318;SDS011;46163;52.306;5.634;2023-02-22T09:44:17;1.83;;;1.50;;
60318;SDS011;46163;52.306;5.634;2023-02-22T09:46:48;1.70;;;1.60;;
60318;SDS011;46163;52.306;5.634;2023-02-22T09:51:49;1.60;;;1.50;;
60318;SDS011;46163;52.306;5.634;2023-02-22T09:54:47;3.35;;;1.77;;
60318;SDS011;46163;52.306;5.634;2023-02-22T09:57:33;3.05;;;1.65;;
60318;SDS011;46163;52.306;5.634;2023-02-22T10:00:17;1.63;;;1.52;;
60318;SDS011;46163;52.306;5.634;2023-02-22T10:03:29;1.50;;;1.40;;
60318;SDS011;46163;52.306;5.634;2023-02-22T10:06:08;2.22;;;1.60;;
60318;SDS011;46163;52.306;5.634;2023-02-22T10:08:35;1.63;;;1.52;;
60318;SDS011;46163;52.306;5.634;2023-02-22T10:14:07;1.95;;;1.50;;
60318;SDS011;46163;52.306;5.634;2023-02-22T10:22:25;1.50;;;1.40;;
60318;SDS011;46163;52.306;5.634;2023-02-22T10:25:13;1.50;;;1.40;;
60318;SDS011;46163;52.306;5.634;2023-02-22T10:27:45;1.70;;;1.60;;
60318;SDS011;46163;52.306;5.634;2023-02-22T10:30:27;2.28;;;1.70;;
60318;SDS011;46163;52.306;5.634;2023-02-22T10:35:59;1.42;;;1.33;;
60318;SDS011;46163;52.306;5.634;2023-02-22T10:38:26;1.52;;;1.40;;
60318;SDS011;46163;52.306;5.634;2023-02-22T10:43:41;1.95;;;1.50;;
60318;SDS011;46163;52.306;5.634;2023-02-22T10:46:09;1.50;;;1.40;;
60318;SDS011;46163;52.306;5.634;2023-02-22T10:48:39;1.73;;;1.60;;
60318;SDS011;46163;52.306;5.634;2023-02-22T10:51:09;1.25;;;1.15;;
60318;SDS011;46163;52.306;5.634;2023-02-22T10:53:35;1.50;;;1.40;;
60318;SDS011;46163;52.306;5.634;2023-02-22T11:06:37;1.50;;;1.40;;
60318;SDS011;46163;52.306;5.634;2023-02-22T11:09:16;1.30;;;1.30;;
60318;SDS011;46163;52.306;5.634;2023-02-22T11:11:46;1.30;;;1.30;;
60318;SDS011;46163;52.306;5.634;2023-02-22T11:14:23;1.40;;;1.30;;
60318;SDS011;46163;52.306;5.634;2023-02-22T11:16:55;1.60;;;1.50;;
60318;SDS011;46163;52.306;5.634;2023-02-22T11:19:31;1.98;;;1.42;;
60318;SDS011;46163;52.306;5.634;2023-02-22T11:22:07;1.45;;;1.35;;
60318;SDS011;46163;52.306;5.634;2023-02-22T11:27:42;1.75;;;1.50;;
60318;SDS011;46163;52.306;5.634;2023-02-22T11:32:46;2.60;;;2.20;;
60318;SDS011;46163;52.306;5.634;2023-02-22T11:35:18;3.13;;;2.72;;
60318;SDS011;46163;52.306;5.634;2023-02-22T11:37:52;2.55;;;2.30;;
60318;SDS011;46163;52.306;5.634;2023-02-22T11:40:33;3.13;;;2.70;;
60318;SDS011;46163;52.306;5.634;2023-02-22T11:43:06;3.00;;;2.30;;
60318;SDS011;46163;52.306;5.634;2023-02-22T11:45:36;3.33;;;2.58;;
60318;SDS011;46163;52.306;5.634;2023-02-22T11:48:04;2.60;;;2.33;;
60318;SDS011;46163;52.306;5.634;2023-02-22T11:53:59;1.85;;;1.75;;
60318;SDS011;46163;52.306;5.634;2023-02-22T11:56:18;2.10;;;1.90;;
60318;SDS011;46163;52.306;5.634;2023-02-22T12:07:09;1.58;;;1.48;;
60318;SDS011;46163;52.306;5.634;2023-02-22T12:12:51;1.50;;;1.40;;
60318;SDS011;46163;52.306;5.634;2023-02-22T12:20:53;2.53;;;1.60;;
60318;SDS011;46163;52.306;5.634;2023-02-22T12:23:24;1.60;;;1.50;;
60318;SDS011;46163;52.306;5.634;2023-02-22T12:26:00;1.75;;;1.48;;
60318;SDS011;46163;52.306;5.634;2023-02-22T12:29:15;1.70;;;1.60;;
60318;SDS011;46163;52.306;5.634;2023-02-22T12:31:46;1.70;;;1.60;;
60318;SDS011;46163;52.306;5.634;2023-02-22T12:34:25;1.90;;;1.67;;
60318;SDS011;46163;52.306;5.634;2023-02-22T12:45:42;1.75;;;1.65;;
60318;SDS011;46163;52.306;5.634;2023-02-22T12:50:42;1.75;;;1.63;;
60318;SDS011;46163;52.306;5.634;2023-02-22T12:56:31;2.25;;;1.50;;
60318;SDS011;46163;52.306;5.634;2023-02-22T13:01:57;1.60;;;1.50;;
60318;SDS011;46163;52.306;5.634;2023-02-22T13:04:28;1.60;;;1.50;;
60318;SDS011;46163;52.306;5.634;2023-02-22T13:19:06;1.70;;;1.60;;
60318;SDS011;46163;52.306;5.634;2023-02-22T13:21:51;1.63;;;1.35;;
60318;SDS011;46163;52.306;5.634;2023-02-22T13:24:24;2.15;;;1.70;;
60318;SDS011;46163;52.306;5.634;2023-02-22T13:26:58;1.85;;;1.60;;
60318;SDS011;46163;52.306;5.634;2023-02-22T13:29:31;1.70;;;1.60;;
60318;SDS011;46163;52.306;5.634;2023-02-22T13:56:22;1.50;;;1.40;;
60318;SDS011;46163;52.306;5.634;2023-02-22T13:58:56;1.40;;;1.40;;
60318;SDS011;46163;52.306;5.634;2023-02-22T14:06:47;1.60;;;1.50;;
60318;SDS011;46163;52.306;5.634;2023-02-22T14:09:14;2.10;;;1.30;;
60318;SDS011;46163;52.306;5.634;2023-02-22T14:11:46;1.38;;;1.35;;
60318;SDS011;46163;52.306;5.634;2023-02-22T14:14:18;1.60;;;1.50;;
60318;SDS011;46163;52.306;5.634;2023-02-22T14:17:14;1.60;;;1.50;;
60318;SDS011;46163;52.306;5.634;2023-02-22T14:22:54;1.60;;;1.50;;
60318;SDS011;46163;52.306;5.634;2023-02-22T14:25:39;1.70;;;1.60;;
60318;SDS011;46163;52.306;5.634;2023-02-22T14:28:31;2.22;;;1.50;;
60318;SDS011;46163;52.306;5.634;2023-02-22T14:31:07;2.42;;;2.05;;
60318;SDS011;46163;52.306;5.634;2023-02-22T14:36:27;1.60;;;1.50;;
60318;SDS011;46163;52.306;5.634;2023-02-22T14:38:53;1.70;;;1.60;;
60318;SDS011;46163;52.306;5.634;2023-02-22T14:41:27;1.65;;;1.55;;
60318;SDS011;46163;52.306;5.634;2023-02-22T14:43:54;1.60;;;1.50;;
60318;SDS011;46163;52.306;5.634;2023-02-22T14:46:22;1.70;;;1.60;;
60318;SDS011;46163;52.306;5.634;2023-02-22T14:48:53;1.50;;;1.40;;
60318;SDS011;46163;52.306;5.634;2023-02-22T14:51:26;2.85;;;1.50;;
60318;SDS011;46163;52.306;5.634;2023-02-22T14:54:29;1.70;;;1.60;;
60318;SDS011;46163;52.306;5.634;2023-02-22T14:56:52;1.60;;;1.50;;
60318;SDS011;46163;52.306;5.634;2023-02-22T14:59:25;1.30;;;1.30;;
60318;SDS011;46163;52.306;5.634;2023-02-22T15:02:05;1.90;;;1.60;;
60318;SDS011;46163;52.306;5.634;2023-02-22T15:04:34;1.50;;;1.40;;
60318;SDS011;46163;52.306;5.634;2023-02-22T15:07:07;1.50;;;1.40;;
60318;SDS011;46163;52.306;5.634;2023-02-22T15:09:44;1.60;;;1.50;;
60318;SDS011;46163;52.306;5.634;2023-02-22T15:12:14;1.40;;;1.30;;
60318;SDS011;46163;52.306;5.634;2023-02-22T15:14:48;1.75;;;1.65;;
60318;SDS011;46163;52.306;5.634;2023-02-22T15:17:17;1.48;;;1.40;;
60318;SDS011;46163;52.306;5.634;2023-02-22T15:19:45;1.70;;;1.52;;
60318;SDS011;46163;52.306;5.634;2023-02-22T15:22:19;1.95;;;1.70;;
60318;SDS011;46163;52.306;5.634;2023-02-22T15:24:57;1.67;;;1.40;;
60318;SDS011;46163;52.306;5.634;2023-02-22T15:27:36;1.45;;;1.35;;
60318;SDS011;46163;52.306;5.634;2023-02-22T15:30:06;1.60;;;1.50;;
60318;SDS011;46163;52.306;5.634;2023-02-22T15:32:41;1.20;;;1.20;;
60318;SDS011;46163;52.306;5.634;2023-02-22T15:35:23;1.58;;;1.48;;
60318;SDS011;46163;52.306;5.634;2023-02-22T15:38:02;1.50;;;1.40;;
60318;SDS011;46163;52.306;5.634;2023-02-22T15:41:00;1.73;;;1.50;;
60318;SDS011;46163;52.306;5.634;2023-02-22T15:43:32;2.00;;;1.83;;
60318;SDS011;46163;52.306;5.634;2023-02-22T15:45:58;2.85;;;2.20;;
60318;SDS011;46163;52.306;5.634;2023-02-22T15:48:24;3.05;;;2.35;;
60318;SDS011;46163;52.306;5.634;2023-02-22T15:51:04;4.07;;;2.80;;
60318;SDS011;46163;52.306;5.634;2023-02-22T15:53:39;3.43;;;2.50;;
60318;SDS011;46163;52.306;5.634;2023-02-22T15:56:14;3.65;;;2.60;;
60318;SDS011;46163;52.306;5.634;2023-02-22T15:58:43;3.78;;;2.70;;
60318;SDS011;46163;52.306;5.634;2023-02-22T16:01:12;4.93;;;2.90;;
60318;SDS011;46163;52.306;5.634;2023-02-22T16:03:46;3.17;;;2.88;;
60318;SDS011;46163;52.306;5.634;2023-02-22T16:08:57;3.13;;;2.53;;
60318;SDS011;46163;52.306;5.634;2023-02-22T16:11:26;4.03;;;3.13;;
60318;SDS011;46163;52.306;5.634;2023-02-22T16:14:00;4.57;;;2.83;;
60318;SDS011;46163;52.306;5.634;2023-02-22T16:16:32;4.85;;;3.08;;
60318;SDS011;46163;52.306;5.634;2023-02-22T16:21:50;3.33;;;2.70;;
60318;SDS011;46163;52.306;5.634;2023-02-22T16:24:30;2.80;;;2.50;;
60318;SDS011;46163;52.306;5.634;2023-02-22T16:27:05;3.42;;;2.63;;
60318;SDS011;46163;52.306;5.634;2023-02-22T16:29:31;3.35;;;2.28;;
60318;SDS011;46163;52.306;5.634;2023-02-22T16:31:56;2.63;;;2.20;;
60318;SDS011;46163;52.306;5.634;2023-02-22T16:34:22;2.75;;;2.38;;
60318;SDS011;46163;52.306;5.634;2023-02-22T16:36:48;2.28;;;2.00;;
60318;SDS011;46163;52.306;5.634;2023-02-22T16:42:00;3.38;;;2.20;;
60318;SDS011;46163;52.306;5.634;2023-02-22T16:46:54;3.10;;;1.90;;
60318;SDS011;46163;52.306;5.634;2023-02-22T16:49:21;2.92;;;2.15;;
60318;SDS011;46163;52.306;5.634;2023-02-22T16:52:00;2.40;;;2.00;;
60318;SDS011;46163;52.306;5.634;2023-02-22T16:54:34;2.38;;;2.00;;
60318;SDS011;46163;52.306;5.634;2023-02-22T16:57:05;2.30;;;2.00;;
60318;SDS011;46163;52.306;5.634;2023-02-22T16:59:31;2.60;;;1.90;;
60318;SDS011;46163;52.306;5.634;2023-02-22T17:02:02;3.65;;;1.90;;
60318;SDS011;46163;52.306;5.634;2023-02-22T17:04:32;3.25;;;1.98;;
60318;SDS011;46163;52.306;5.634;2023-02-22T17:06:57;2.60;;;1.80;;
60318;SDS011;46163;52.306;5.634;2023-02-22T17:09:23;2.88;;;2.10;;
60318;SDS011;46163;52.306;5.634;2023-02-22T17:11:49;2.22;;;2.03;;
60318;SDS011;46163;52.306;5.634;2023-02-22T17:14:16;3.55;;;1.83;;
60318;SDS011;46163;52.306;5.634;2023-02-22T17:16:47;2.05;;;1.77;;
60318;SDS011;46163;52.306;5.634;2023-02-22T17:19:16;2.53;;;1.98;;
60318;SDS011;46163;52.306;5.634;2023-02-22T17:21:44;3.83;;;2.20;;
60318;SDS011;46163;52.306;5.634;2023-02-22T17:24:11;2.17;;;1.75;;
60318;SDS011;46163;52.306;5.634;2023-02-22T17:26:38;3.80;;;1.70;;
60318;SDS011;46163;52.306;5.634;2023-02-22T17:29:04;2.35;;;2.03;;
60318;SDS011;46163;52.306;5.634;2023-02-22T17:31:30;3.05;;;1.80;;
60318;SDS011;46163;52.306;5.634;2023-02-22T17:33:59;3.83;;;1.73;;
60318;SDS011;46163;52.306;5.634;2023-02-22T17:36:27;2.17;;;1.92;;
60318;SDS011;46163;52.306;5.634;2023-02-22T17:38:56;3.00;;;1.90;;
60318;SDS011;46163;52.306;5.634;2023-02-22T17:41:23;2.13;;;1.90;;
60318;SDS011;46163;52.306;5.634;2023-02-22T17:43:48;2.60;;;1.58;;
60318;SDS011;46163;52.306;5.634;2023-02-22T17:46:14;2.15;;;1.85;;
60318;SDS011;46163;52.306;5.634;2023-02-22T17:48:40;3.22;;;2.10;;
60318;SDS011;46163;52.306;5.634;2023-02-22T17:51:06;2.05;;;1.85;;
60318;SDS011;46163;52.306;5.634;2023-02-22T17:53:34;2.10;;;1.90;;
60318;SDS011;46163;52.306;5.634;2023-02-22T17:56:07;2.00;;;1.80;;
60318;SDS011;46163;52.306;5.634;2023-02-22T17:58:35;2.72;;;1.80;;
60318;SDS011;46163;52.306;5.634;2023-02-22T18:01:01;2.05;;;1.80;;